Tamara — HOEH — position and weather

sailwx.info

Track history (hours):
 
Tides and Currents Weather Stations Pressure Air Temp Water Temp Dewpoint Dewpoint Depression Visibility Wind Speed Wind Dir Waves Ship Positions

Tamara

Last reported at 2016-Jun-30 11:19 UTC. Time now 2016-Jun-30 12:20 UTC.
Position N 34°48' E 018°46'.

Length 117 m; draft 5.7 m.

Type: Ship (hazmat cat A). MMSI: 353900000.

Date/timePositionNaut miles runAvg speedWind from/ knotsBaromVisibWave heightAir tempDewpointWater temp
2016-Jun-30 11:19N 34°48' E 018°46'1013.4
2016-Jun-30 10:33N 34°44' E 018°58'1110.9
2016-Jun-30 09:32N 34°39' E 019°10'9 9.5
2016-Jun-30 08:33N 34°40' E 018°58'1313.0
2016-Jun-30 07:34N 34°42' E 018°43'13613.6
2016-Jun-29 21:33N 35°29' E 016°07'1413.8
2016-Jun-29 20:34N 35°34' E 015°51'1413.9
2016-Jun-29 19:33N 35°39' E 015°35'1413.7
2016-Jun-29 18:33N 35°43' E 015°20'1413.6
2016-Jun-29 17:33N 35°48' E 015°04'1313.4
2016-Jun-29 16:33N 35°53' E 014°48'2 1.7
2016-Jun-29 15:34N 35°53' E 014°46'0 0.0
2016-Jun-29 14:33N 35°53' E 014°46'0 0.0
2016-Jun-29 13:33N 35°53' E 014°46'0 0.0
2016-Jun-29 12:33N 35°53' E 014°46'0 0.0
2016-Jun-29 11:33N 35°53' E 014°46'0 0.0
2016-Jun-29 10:33N 35°53' E 014°46'0 0.0
2016-Jun-29 09:33N 35°53' E 014°46'0 0.0
2016-Jun-29 08:33N 35°53' E 014°46'0 0.0
2016-Jun-29 07:30N 35°53' E 014°47'0 0.0
2016-Jun-29 06:33N 35°53' E 014°47'0 0.0
2016-Jun-29 05:33N 35°53' E 014°47'0 0.0
2016-Jun-29 04:30N 35°53' E 014°47'0 0.0
2016-Jun-29 03:33N 35°53' E 014°47'0 0.0
2016-Jun-28 21:33N 35°53' E 014°47'0 0.0
2016-Jun-28 20:33N 35°53' E 014°47'0 0.0
2016-Jun-28 19:33N 35°53' E 014°47'3 3.3
2016-Jun-28 18:33N 35°56' E 014°47'1413.6
2016-Jun-28 17:33N 36°10' E 014°46'2913.9
2016-Jun-28 15:26N 36°28' E 014°17'1314.6
2016-Jun-28 14:33N 36°35' E 014°04'1514.9
2016-Jun-28 13:33N 36°44' E 013°48'1514.8
2016-Jun-28 12:33N 36°53' E 013°34'1414.1
2016-Jun-28 11:33N 37°01' E 013°19'7114.2
2016-Jun-28 06:33N 37°38' E 012°03'3114.5
2016-Jun-28 04:27N 37°54' E 011°30'1714.8
2016-Jun-28 03:19N 38°03' E 011°12'1114.4
2016-Jun-28 02:33N 38°08' E 010°60'8713.7
2016-Jun-27 20:15N 37°59' E 009°10'1013.8
2016-Jun-27 19:33N 37°58' E 008°58'1413.8
2016-Jun-27 18:33N 37°55' E 008°41'25113.7
2016-Jun-27 00:16N 37°19' E 003°28'5413.5
2016-Jun-26 20:17N 37°11' E 002°21'1013.7
2016-Jun-26 19:33N 37°10' E 002°08'1413.7
2016-Jun-26 18:33N 37°08' E 001°51'225163.4
2016-Jun-26 17:10N 36°18' W 002°43'0 0.0
2016-Jun-26 16:19N 36°18' W 002°43'0 0.0
2016-Jun-26 15:29N 36°18' W 002°43'0 0.0
2016-Jun-26 12:06N 36°18' W 002°43'0 0.0
2016-Jun-26 11:15N 36°18' W 002°43'0 0.0
2016-Jun-26 10:24N 36°18' W 002°43'107108.1
2016-Jun-26 09:25N 36°43' W 000°34'1314.2
2016-Jun-26 08:29N 36°40' W 000°50'9340.3
2016-Jun-26 06:10N 36°18' W 002°43'0 0.0
2016-Jun-26 05:20N 36°18' W 002°43'0 0.0
2016-Jun-26 04:29N 36°18' W 002°43'11511.4
2016-Jun-25 18:24N 36°01' W 005°03'1517.4
2016-Jun-25 17:33N 35°59' W 005°21'4313.5
2016-Jun-25 14:25N 35°43' W 006°10'36 0.9
2016-Jun-23 21:11N 35°22' W 006°45'812.9
2016-Jun-23 20:33N 35°29' W 006°40'1313.3
2016-Jun-23 19:33N 35°41' W 006°33'1312.9
2016-Jun-23 18:33N 35°52' W 006°26'1010.5
2016-Jun-23 17:33N 35°58' W 006°15'3711.9
2016-Jun-23 14:28N 35°59' W 005°29'1011.2
2016-Jun-23 13:34N 36°02' W 005°17'21212.3
2016-Jun-22 20:15N 37°11' W 001°07'913.4
2016-Jun-22 19:33N 37°17' W 000°58'1313.2
2016-Jun-22 18:33N 37°26' W 000°45'1313.3
2016-Jun-22 17:33N 37°35' W 000°33'1313.2
2016-Jun-22 16:33N 37°45' W 000°23'1313.0
2016-Jun-22 15:33N 37°56' W 000°14'14713.3
2016-Jun-22 04:33N 39°57' E 001°32'1313.2
2016-Jun-22 03:33N 40°08' E 001°43'1313.1
2016-Jun-22 02:33N 40°18' E 001°53'1312.7
2016-Jun-22 01:33N 40°29' E 002°03'1212.5
2016-Jun-22 00:34N 40°39' E 002°13'1312.8
2016-Jun-21 23:33N 40°49' E 002°23'1313.1
2016-Jun-21 22:34N 40°59' E 002°33'1413.4
2016-Jun-21 21:33N 41°10' E 002°44'1313.4
2016-Jun-21 20:33N 41°21' E 002°55'1313.3
2016-Jun-21 19:34N 41°31' E 003°06'1313.0
2016-Jun-21 18:33N 41°42' E 003°16'1312.7
2016-Jun-21 17:34N 41°51' E 003°27'1313.0
2016-Jun-21 16:33N 42°01' E 003°39'1313.4
2016-Jun-21 15:33N 42°11' E 003°51'1313.4
2016-Jun-21 14:33N 42°21' E 004°03'43 7.1
2016-Jun-21 08:30N 42°58' E 004°33'23 1.9
2016-Jun-20 20:32N 43°10' E 004°60'1111.7
2016-Jun-20 19:34N 43°21' E 004°58'3 3.2
2016-Jun-20 18:33N 43°24' E 004°60'0 0.0
2016-Jun-20 17:33N 43°24' E 004°60'0 0.0
2016-Jun-20 16:33N 43°24' E 004°60'0 0.0
2016-Jun-20 15:33N 43°24' E 004°60'0 0.0
2016-Jun-20 14:33N 43°24' E 004°60'0 0.0
2016-Jun-20 13:33N 43°24' E 004°60'0 0.0
2016-Jun-20 12:33N 43°24' E 004°60'0 0.0
2016-Jun-20 11:33N 43°24' E 004°60'  
Track history (hours):
 
Tides and Currents Weather Stations Pressure Air Temp Water Temp Dewpoint Dewpoint Depression Visibility Wind Speed Wind Dir Waves Ship Positions

Tamara

Last reported at 2016-Jun-30 11:19 UTC. Time now 2016-Jun-30 12:20 UTC.
Position N 34°48' E 018°46'.

Length 117 m; draft 5.7 m.

Type: Ship (hazmat cat A). MMSI: 353900000.

Date/timePositionNaut miles runAvg speedWind from/ knotsBaromVisibWave heightAir tempDewpointWater temp
2016-Jun-30 11:19N 34°48' E 018°46'1013.4
2016-Jun-30 10:33N 34°44' E 018°58'1110.9
2016-Jun-30 09:32N 34°39' E 019°10'9 9.5
2016-Jun-30 08:33N 34°40' E 018°58'1313.0
2016-Jun-30 07:34N 34°42' E 018°43'13613.6
2016-Jun-29 21:33N 35°29' E 016°07'1413.8
2016-Jun-29 20:34N 35°34' E 015°51'1413.9
2016-Jun-29 19:33N 35°39' E 015°35'1413.7
2016-Jun-29 18:33N 35°43' E 015°20'1413.6
2016-Jun-29 17:33N 35°48' E 015°04'1313.4
2016-Jun-29 16:33N 35°53' E 014°48'2 1.7
2016-Jun-29 15:34N 35°53' E 014°46'0 0.0
2016-Jun-29 14:33N 35°53' E 014°46'0 0.0
2016-Jun-29 13:33N 35°53' E 014°46'0 0.0
2016-Jun-29 12:33N 35°53' E 014°46'0 0.0
2016-Jun-29 11:33N 35°53' E 014°46'0 0.0
2016-Jun-29 10:33N 35°53' E 014°46'0 0.0
2016-Jun-29 09:33N 35°53' E 014°46'0 0.0
2016-Jun-29 08:33N 35°53' E 014°46'0 0.0
2016-Jun-29 07:30N 35°53' E 014°47'0 0.0
2016-Jun-29 06:33N 35°53' E 014°47'0 0.0
2016-Jun-29 05:33N 35°53' E 014°47'0 0.0
2016-Jun-29 04:30N 35°53' E 014°47'0 0.0
2016-Jun-29 03:33N 35°53' E 014°47'0 0.0
2016-Jun-28 21:33N 35°53' E 014°47'0 0.0
2016-Jun-28 20:33N 35°53' E 014°47'0 0.0
2016-Jun-28 19:33N 35°53' E 014°47'3 3.3
2016-Jun-28 18:33N 35°56' E 014°47'1413.6
2016-Jun-28 17:33N 36°10' E 014°46'2913.9
2016-Jun-28 15:26N 36°28' E 014°17'1314.6
2016-Jun-28 14:33N 36°35' E 014°04'1514.9
2016-Jun-28 13:33N 36°44' E 013°48'1514.8
2016-Jun-28 12:33N 36°53' E 013°34'1414.1
2016-Jun-28 11:33N 37°01' E 013°19'7114.2
2016-Jun-28 06:33N 37°38' E 012°03'3114.5
2016-Jun-28 04:27N 37°54' E 011°30'1714.8
2016-Jun-28 03:19N 38°03' E 011°12'1114.4
2016-Jun-28 02:33N 38°08' E 010°60'8713.7
2016-Jun-27 20:15N 37°59' E 009°10'1013.8
2016-Jun-27 19:33N 37°58' E 008°58'1413.8
2016-Jun-27 18:33N 37°55' E 008°41'25113.7
2016-Jun-27 00:16N 37°19' E 003°28'5413.5
2016-Jun-26 20:17N 37°11' E 002°21'1013.7
2016-Jun-26 19:33N 37°10' E 002°08'1413.7
2016-Jun-26 18:33N 37°08' E 001°51'225163.4
2016-Jun-26 17:10N 36°18' W 002°43'0 0.0
2016-Jun-26 16:19N 36°18' W 002°43'0 0.0
2016-Jun-26 15:29N 36°18' W 002°43'0 0.0
2016-Jun-26 12:06N 36°18' W 002°43'0 0.0
2016-Jun-26 11:15N 36°18' W 002°43'0 0.0
2016-Jun-26 10:24N 36°18' W 002°43'107108.1
2016-Jun-26 09:25N 36°43' W 000°34'1314.2
2016-Jun-26 08:29N 36°40' W 000°50'9340.3
2016-Jun-26 06:10N 36°18' W 002°43'0 0.0
2016-Jun-26 05:20N 36°18' W 002°43'0 0.0
2016-Jun-26 04:29N 36°18' W 002°43'11511.4
2016-Jun-25 18:24N 36°01' W 005°03'1517.4
2016-Jun-25 17:33N 35°59' W 005°21'4313.5
2016-Jun-25 14:25N 35°43' W 006°10'36 0.9
2016-Jun-23 21:11N 35°22' W 006°45'812.9
2016-Jun-23 20:33N 35°29' W 006°40'1313.3
2016-Jun-23 19:33N 35°41' W 006°33'1312.9
2016-Jun-23 18:33N 35°52' W 006°26'1010.5
2016-Jun-23 17:33N 35°58' W 006°15'3711.9
2016-Jun-23 14:28N 35°59' W 005°29'1011.2
2016-Jun-23 13:34N 36°02' W 005°17'21212.3
2016-Jun-22 20:15N 37°11' W 001°07'913.4
2016-Jun-22 19:33N 37°17' W 000°58'1313.2
2016-Jun-22 18:33N 37°26' W 000°45'1313.3
2016-Jun-22 17:33N 37°35' W 000°33'1313.2
2016-Jun-22 16:33N 37°45' W 000°23'1313.0
2016-Jun-22 15:33N 37°56' W 000°14'14713.3
2016-Jun-22 04:33N 39°57' E 001°32'1313.2
2016-Jun-22 03:33N 40°08' E 001°43'1313.1
2016-Jun-22 02:33N 40°18' E 001°53'1312.7
2016-Jun-22 01:33N 40°29' E 002°03'1212.5
2016-Jun-22 00:34N 40°39' E 002°13'1312.8
2016-Jun-21 23:33N 40°49' E 002°23'1313.1
2016-Jun-21 22:34N 40°59' E 002°33'1413.4
2016-Jun-21 21:33N 41°10' E 002°44'1313.4
2016-Jun-21 20:33N 41°21' E 002°55'1313.3
2016-Jun-21 19:34N 41°31' E 003°06'1313.0
2016-Jun-21 18:33N 41°42' E 003°16'1312.7
2016-Jun-21 17:34N 41°51' E 003°27'1313.0
2016-Jun-21 16:33N 42°01' E 003°39'1313.4
2016-Jun-21 15:33N 42°11' E 003°51'1313.4
2016-Jun-21 14:33N 42°21' E 004°03'43 7.1
2016-Jun-21 08:30N 42°58' E 004°33'23 1.9
2016-Jun-20 20:32N 43°10' E 004°60'1111.7
2016-Jun-20 19:34N 43°21' E 004°58'3 3.2
2016-Jun-20 18:33N 43°24' E 004°60'0 0.0
2016-Jun-20 17:33N 43°24' E 004°60'0 0.0
2016-Jun-20 16:33N 43°24' E 004°60'0 0.0
2016-Jun-20 15:33N 43°24' E 004°60'0 0.0
2016-Jun-20 14:33N 43°24' E 004°60'0 0.0
2016-Jun-20 13:33N 43°24' E 004°60'0 0.0
2016-Jun-20 12:33N 43°24' E 004°60'0 0.0
2016-Jun-20 11:33N 43°24' E 004°60'  

Dump ship's entire track history